Аэропорт: Адлер. Сочи

ICAO: URSS

METAR:
2019/01/21 23:00
URSS 212300Z 06002MPS 340V130 9999 BKN050CB OVC073 08/03 Q1018 R06/090070 R02/090070 NOSIG RMK R02/05004G07MPS QFE763
METAR:
2019/01/21 21:21
TAF URSS 211959Z 2121/2221 05007MPS 9999 BKN030CB OVC100 
      TEMPO 2121/2209 VRB07G12MPS 3100 -TSRA BKN011 BKN020CB OVC100 
      BECMG 2209/2210 15005G10MPS BKN011 BKN020CB OVC100 
      BECMG 2215/2216 06006MPS